12  °C
Temperature
12  °C
  Dewpoint
   Humidity
Temp | Dewpoint | Humidity
13  km/h
Wind Speed
8  mph
Wind Speed
7  kts
Wind Speed
20°
North North
East

Wind Speed
Light Rain
Showers
Pressure 987.92 (hPa) - 29.17 (in)
Visibility 3.7 (mi) - 6.0 (km)

Current Conditions
EGTE
Location 6km (3.2mi)
Metar :EGTE 201820Z 02007KT 6000 -SHRA SCT020 12/12 Q0988
Wed 20th October 18:20 pm

Airport
  Metar Aviation API Data Provided by https://www.checkwx.com/ CSS/SVG/PHP scripts by weather34.com © 2015-2021